San Benito, Texas
Current Conditions -  °F | °C
As of 4:52 PM on Thursday 18 Dec 2014 (Local Time) from KHRL Reporting Station
Haze Haze  
Wind Chill: 71°   Ceiling: 3400
Heat Index: 71°   Visibility: 4mi
Dew Point: 70°   Wind: 0mph
Humidity: 96%   Direction: NA
Pressure: 29.95"   Gusts: NA
Location:  26.13°N, 97.63°W
Report Text: KHRL 182252Z 00000KT 4SM BR SCT023 BKN034 OVC050 22/21 A2995 RMK AO2 RAB00E46 SLP141 P0004 T02170211
Loading
Personal Weather Stations






























Interactive Weather Map New forecast layout! Learn more

10-Day Weather Forecast

Advertisements
Track Severe Weather on mobile